METAR LSZS 192250Z AUTO 14001KT 9999 BKN004 11/11 Q1026=